Time;durP1;ratioP1;P1;durP2;ratioP2;P2;SDS_P1;SDS_P2;PMS_P1;PMS_P2;Temp;Humidity;BMP_temperature;BMP_pressure;BME280_temperature;BME280_humidity;BME280_pressure;Samples;Min_cycle;Max_cycle;Signal;HPM_P1;HPM_P2
2024/01/29 00:01:23;;;;;;;5.53;5.10;;;21.60;52.30;;;;;;5061743;28;20482;-69
2024/01/29 00:03:53;;;;;;;5.77;5.27;;;21.60;52.30;;;;;;5039869;28;20548;-70
2024/01/29 00:06:22;;;;;;;5.80;5.40;;;21.50;52.30;;;;;;5046778;28;20963;-70
2024/01/29 00:08:52;;;;;;;5.30;4.90;;;21.50;52.30;;;;;;5042630;28;20532;-70
2024/01/29 00:11:20;;;;;;;5.80;5.40;;;21.50;52.30;;;;;;5048147;28;20465;-71
2024/01/29 00:13:49;;;;;;;5.60;5.10;;;21.50;52.30;;;;;;5052452;28;20771;-69
2024/01/29 00:16:17;;;;;;;5.60;5.20;;;21.50;52.30;;;;;;5044687;28;20470;-69
2024/01/29 00:18:45;;;;;;;5.63;5.13;;;21.50;52.30;;;;;;5039240;28;20464;-70
2024/01/29 00:21:15;;;;;;;5.07;4.67;;;21.40;52.30;;;;;;5063247;28;20536;-70
2024/01/29 00:23:43;;;;;;;5.10;4.63;;;21.40;52.30;;;;;;5033893;28;20484;-70
2024/01/29 00:26:12;;;;;;;4.90;4.50;;;21.40;52.30;;;;;;5048142;28;20457;-69
2024/01/29 00:28:41;;;;;;;5.67;5.17;;;21.40;52.30;;;;;;5049621;28;20514;-70
2024/01/29 00:31:09;;;;;;;5.27;4.97;;;21.40;52.30;;;;;;5060168;28;20456;-70
2024/01/29 00:33:37;;;;;;;6.10;5.50;;;21.40;52.30;;;;;;5038282;28;20529;-69
2024/01/29 00:36:06;;;;;;;4.83;4.43;;;21.40;52.30;;;;;;5051492;28;20466;-69
2024/01/29 00:38:36;;;;;;;4.77;4.47;;;21.40;52.30;;;;;;5053525;28;20467;-70
2024/01/29 00:41:04;;;;;;;5.03;4.67;;;21.40;52.30;;;;;;5053949;28;20464;-71
2024/01/29 00:43:33;;;;;;;5.70;5.30;;;21.30;52.30;;;;;;5049869;28;20827;-69
2024/01/29 00:46:01;;;;;;;4.97;4.63;;;21.30;52.30;;;;;;5048486;28;20463;-69
2024/01/29 00:48:29;;;;;;;5.53;5.10;;;21.30;52.30;;;;;;5047997;28;20455;-70
2024/01/29 00:50:58;;;;;;;4.30;4.00;;;21.30;52.30;;;;;;5061448;28;20459;-74
2024/01/29 00:53:26;;;;;;;4.73;4.33;;;21.30;52.30;;;;;;5046215;28;20965;-69
2024/01/29 00:55:56;;;;;;;4.67;4.37;;;21.30;52.30;;;;;;5052813;28;20450;-70
2024/01/29 00:58:24;;;;;;;5.80;5.40;;;21.30;52.30;;;;;;5043121;28;20468;-74
2024/01/29 01:00:52;;;;;;;5.13;4.80;;;21.20;52.30;;;;;;5055804;28;20454;-70
2024/01/29 01:03:21;;;;;;;5.27;4.87;;;21.20;52.30;;;;;;5051053;28;20864;-70
2024/01/29 01:05:49;;;;;;;4.90;4.50;;;21.20;52.30;;;;;;5048782;28;20455;-69
2024/01/29 01:08:18;;;;;;;4.87;4.57;;;21.20;52.30;;;;;;5051833;28;20444;-70
2024/01/29 01:10:46;;;;;;;4.70;4.40;;;21.20;52.30;;;;;;5055840;28;20447;-70
2024/01/29 01:13:16;;;;;;;5.03;4.60;;;21.20;52.30;;;;;;5055097;28;20497;-70
2024/01/29 01:15:44;;;;;;;4.47;4.17;;;21.20;52.30;;;;;;5052314;28;20460;-70
2024/01/29 01:18:12;;;;;;;5.10;4.70;;;21.20;52.30;;;;;;5048060;28;20455;-72
2024/01/29 01:20:42;;;;;;;5.20;4.80;;;21.20;52.30;;;;;;5057175;28;20961;-73
2024/01/29 01:23:10;;;;;;;5.13;4.83;;;21.20;52.20;;;;;;5043744;28;20499;-72
2024/01/29 01:25:38;;;;;;;5.00;4.60;;;21.20;52.30;;;;;;5047788;28;20456;-69
2024/01/29 01:28:08;;;;;;;4.40;4.10;;;21.20;52.20;;;;;;5045003;28;20495;-69
2024/01/29 01:30:38;;;;;;;4.50;4.20;;;21.20;52.20;;;;;;5058075;28;20448;-69
2024/01/29 01:33:06;;;;;;;4.33;4.00;;;21.20;52.20;;;;;;5050572;28;20514;-70
2024/01/29 01:35:34;;;;;;;4.77;4.40;;;21.10;52.20;;;;;;5052859;28;20451;-69
2024/01/29 01:38:03;;;;;;;4.80;4.50;;;21.20;52.20;;;;;;5046256;28;20463;-71
2024/01/29 01:40:31;;;;;;;4.70;4.40;;;21.10;52.20;;;;;;5051962;28;20460;-70
2024/01/29 01:43:02;;;;;;;4.27;3.97;;;21.10;52.20;;;;;;5050344;28;20476;-70
2024/01/29 01:45:31;;;;;;;4.30;4.00;;;21.10;52.20;;;;;;5052747;28;20462;-70
2024/01/29 01:48:00;;;;;;;5.10;4.77;;;21.10;52.20;;;;;;5045790;28;20802;-71
2024/01/29 01:50:29;;;;;;;4.30;4.00;;;21.10;52.20;;;;;;5052790;28;20498;-71
2024/01/29 01:52:57;;;;;;;5.23;4.83;;;21.10;52.20;;;;;;5049153;28;20465;-70
2024/01/29 01:55:27;;;;;;;4.03;3.73;;;21.10;52.20;;;;;;5050255;28;20474;-71
2024/01/29 01:57:56;;;;;;;5.23;4.87;;;21.10;52.20;;;;;;5050030;28;20815;-70
2024/01/29 02:00:25;;;;;;;4.80;4.40;;;21.10;52.20;;;;;;5055417;28;20951;-70
2024/01/29 02:02:53;;;;;;;3.63;3.40;;;21.10;52.20;;;;;;5061184;28;20566;-69
2024/01/29 02:05:23;;;;;;;3.73;3.53;;;21.10;52.10;;;;;;5045737;28;20482;-70
2024/01/29 02:07:51;;;;;;;4.67;4.37;;;21.10;52.20;;;;;;5050226;28;20990;-70
2024/01/29 02:10:20;;;;;;;4.50;4.20;;;21.10;52.10;;;;;;5048983;28;20496;-70
2024/01/29 02:12:48;;;;;;;5.13;4.73;;;21.10;52.10;;;;;;5071232;28;20431;-69
2024/01/29 02:15:20;;;;;;;4.20;3.90;;;21.10;52.10;;;;;;5050504;28;20958;-70
2024/01/29 02:17:48;;;;;;;4.53;4.23;;;21.10;52.10;;;;;;5046203;28;20487;-69
2024/01/29 02:20:18;;;;;;;3.57;3.37;;;21.00;52.10;;;;;;5049242;28;20452;-71
2024/01/29 02:22:47;;;;;;;4.40;4.10;;;21.00;52.10;;;;;;5048016;28;21141;-71
2024/01/29 02:25:15;;;;;;;4.77;4.37;;;21.00;52.10;;;;;;5050727;28;20525;-71
2024/01/29 02:27:45;;;;;;;4.30;4.00;;;21.00;52.10;;;;;;5037842;28;20476;-69
2024/01/29 02:30:14;;;;;;;4.10;3.80;;;21.00;52.10;;;;;;5048918;28;20463;-69
2024/01/29 02:32:42;;;;;;;4.27;3.97;;;21.00;52.10;;;;;;5050301;28;20469;-69
2024/01/29 02:35:11;;;;;;;3.80;3.20;;;21.00;52.10;;;;;;5049873;28;20477;-70
2024/01/29 02:37:39;;;;;;;4.23;3.93;;;21.00;52.10;;;;;;5046181;28;20455;-71
2024/01/29 02:40:11;;;;;;;4.80;4.50;;;21.00;52.10;;;;;;5043572;28;20459;-71
2024/01/29 02:42:41;;;;;;;4.20;3.90;;;21.00;52.10;;;;;;5040697;28;20473;-71
2024/01/29 02:45:10;;;;;;;3.60;3.37;;;21.00;52.10;;;;;;5040714;28;20923;-72
2024/01/29 02:47:38;;;;;;;4.30;4.00;;;21.00;52.10;;;;;;5045870;28;20448;-70
2024/01/29 02:50:07;;;;;;;3.47;3.17;;;21.00;52.10;;;;;;5046930;28;20545;-71
2024/01/29 02:52:35;;;;;;;4.43;4.13;;;20.90;52.10;;;;;;5039459;28;20555;-71
2024/01/29 02:55:04;;;;;;;4.30;4.00;;;20.90;52.00;;;;;;5053363;28;20451;-70
2024/01/29 02:57:34;;;;;;;3.93;3.70;;;20.90;52.10;;;;;;5048938;28;20475;-70
2024/01/29 03:00:04;;;;;;;3.70;3.50;;;20.90;52.10;;;;;;5041479;28;20643;-70
2024/01/29 03:02:32;;;;;;;4.10;3.83;;;20.90;52.10;;;;;;5049816;28;20874;-70
2024/01/29 03:05:01;;;;;;;4.23;3.93;;;20.90;52.10;;;;;;5044626;28;20464;-71
2024/01/29 03:07:29;;;;;;;4.17;3.87;;;20.90;52.10;;;;;;5033958;28;20493;-70
2024/01/29 03:09:58;;;;;;;4.30;4.00;;;20.90;52.10;;;;;;5049586;28;20443;-70
2024/01/29 03:12:26;;;;;;;3.70;3.47;;;20.80;52.10;;;;;;5053550;28;20902;-70
2024/01/29 03:14:56;;;;;;;4.50;4.10;;;20.80;52.10;;;;;;5055205;28;20439;-70
2024/01/29 03:17:24;;;;;;;4.93;4.53;;;20.80;52.10;;;;;;5045270;28;20458;-70
2024/01/29 03:19:53;;;;;;;3.63;3.43;;;20.80;52.10;;;;;;5054593;28;20441;-70
2024/01/29 03:22:21;;;;;;;4.13;3.83;;;20.80;52.10;;;;;;5044860;28;20989;-70
2024/01/29 03:24:49;;;;;;;4.80;4.50;;;20.80;52.10;;;;;;5054282;28;20827;-70
2024/01/29 03:27:17;;;;;;;3.63;3.43;;;20.70;52.20;;;;;;5049669;28;20821;-70
2024/01/29 03:29:46;;;;;;;4.03;3.73;;;20.70;52.20;;;;;;5048221;28;20872;-69
2024/01/29 03:32:16;;;;;;;4.30;4.00;;;20.70;52.20;;;;;;5045480;28;20470;-70
2024/01/29 03:34:44;;;;;;;4.40;4.10;;;20.70;52.20;;;;;;5054174;28;20443;-70
2024/01/29 03:37:13;;;;;;;3.77;3.47;;;20.70;52.20;;;;;;5046087;28;20478;-70
2024/01/29 03:39:41;;;;;;;4.40;4.10;;;20.70;52.30;;;;;;5049426;28;20455;-70
2024/01/29 03:42:10;;;;;;;5.03;4.73;;;20.70;52.30;;;;;;5052975;28;20496;-71
2024/01/29 03:44:38;;;;;;;4.33;4.03;;;20.70;52.30;;;;;;5039917;28;20478;-71
2024/01/29 03:47:07;;;;;;;3.90;3.60;;;20.70;52.30;;;;;;5043479;28;20512;-70
2024/01/29 03:49:36;;;;;;;3.87;3.57;;;20.70;52.30;;;;;;5049829;28;20451;-70
2024/01/29 03:52:05;;;;;;;4.07;3.77;;;20.70;52.30;;;;;;5053618;28;20505;-71
2024/01/29 03:54:34;;;;;;;4.30;4.00;;;20.70;52.30;;;;;;5058887;28;20458;-71
2024/01/29 03:57:02;;;;;;;4.20;3.90;;;20.70;52.30;;;;;;5066669;28;20892;-70
2024/01/29 03:59:33;;;;;;;3.90;3.70;;;20.60;52.30;;;;;;5053302;28;21383;-71
2024/01/29 04:02:02;;;;;;;3.10;2.90;;;20.70;52.30;;;;;;5044027;28;20853;-70
2024/01/29 04:04:30;;;;;;;3.50;3.30;;;20.60;52.30;;;;;;5034817;28;20478;-70
2024/01/29 04:07:00;;;;;;;4.00;3.70;;;20.60;52.30;;;;;;5044405;28;20482;-70
2024/01/29 04:09:28;;;;;;;4.13;3.83;;;20.60;52.30;;;;;;5052952;28;20455;-70
2024/01/29 04:11:57;;;;;;;4.03;3.77;;;20.60;52.30;;;;;;5060319;28;20463;-73
2024/01/29 04:14:25;;;;;;;4.30;3.93;;;20.60;52.30;;;;;;5053515;28;20470;-71
2024/01/29 04:16:53;;;;;;;3.63;3.43;;;20.60;52.30;;;;;;5046123;28;20461;-70
2024/01/29 04:19:22;;;;;;;3.77;3.57;;;20.60;52.30;;;;;;5045181;28;20466;-69
2024/01/29 04:21:50;;;;;;;4.00;3.80;;;20.60;52.30;;;;;;5047188;28;20466;-74
2024/01/29 04:24:20;;;;;;;4.00;3.80;;;20.60;52.30;;;;;;5052721;28;20499;-71
2024/01/29 04:26:48;;;;;;;3.70;3.50;;;20.60;52.30;;;;;;5052493;28;20454;-71
2024/01/29 04:29:16;;;;;;;4.50;4.10;;;20.60;52.30;;;;;;5048666;28;20510;-70
2024/01/29 04:31:45;;;;;;;3.50;3.30;;;20.60;52.30;;;;;;5038328;28;20955;-70
2024/01/29 04:34:13;;;;;;;3.97;3.67;;;20.60;52.30;;;;;;5055972;28;20525;-70
2024/01/29 04:36:41;;;;;;;3.50;3.30;;;20.60;52.30;;;;;;5045915;28;20798;-70
2024/01/29 04:39:09;;;;;;;3.60;3.40;;;20.60;52.30;;;;;;5052502;28;20462;-69
2024/01/29 04:41:39;;;;;;;3.73;3.53;;;20.50;52.30;;;;;;5042002;28;20460;-70
2024/01/29 04:44:07;;;;;;;4.10;3.80;;;20.50;52.30;;;;;;5055136;28;20835;-70
2024/01/29 04:46:37;;;;;;;4.17;3.87;;;20.50;52.30;;;;;;5040418;28;20566;-70
2024/01/29 04:49:05;;;;;;;4.47;4.03;;;20.50;52.30;;;;;;5037553;28;20462;-70
2024/01/29 04:51:34;;;;;;;4.00;3.70;;;20.50;52.20;;;;;;5048232;28;20487;-70
2024/01/29 04:54:02;;;;;;;4.37;4.07;;;20.50;52.30;;;;;;5048404;28;20440;-71
2024/01/29 04:56:31;;;;;;;4.43;4.13;;;20.50;52.30;;;;;;5059929;28;21324;-70
2024/01/29 04:59:00;;;;;;;4.23;3.93;;;20.50;52.30;;;;;;5056565;28;20456;-71
2024/01/29 05:01:28;;;;;;;3.60;3.30;;;20.50;52.30;;;;;;5042478;28;20472;-70
2024/01/29 05:03:57;;;;;;;4.17;3.87;;;20.60;52.20;;;;;;5042278;28;20978;-73
2024/01/29 05:06:25;;;;;;;4.20;3.90;;;20.60;52.20;;;;;;5051863;28;20478;-71
2024/01/29 05:08:55;;;;;;;4.10;3.80;;;20.60;52.10;;;;;;5038523;28;20482;-71
2024/01/29 05:11:23;;;;;;;4.50;4.20;;;20.70;52.10;;;;;;5050367;28;20858;-70
2024/01/29 05:13:53;;;;;;;4.27;3.97;;;20.70;51.90;;;;;;5053102;28;20457;-71
2024/01/29 05:16:22;;;;;;;4.87;4.47;;;20.80;51.90;;;;;;5042154;28;20464;-71
2024/01/29 05:18:51;;;;;;;4.57;4.20;;;20.80;51.80;;;;;;5051917;28;20456;-71
2024/01/29 05:21:19;;;;;;;4.93;4.60;;;20.90;51.70;;;;;;5044946;28;20549;-72
2024/01/29 05:23:47;;;;;;;4.03;3.70;;;20.90;51.70;;;;;;5052268;28;20486;-72
2024/01/29 05:26:16;;;;;;;5.27;4.87;;;20.90;51.60;;;;;;5046284;28;20939;-71
2024/01/29 05:28:44;;;;;;;5.30;4.80;;;21.00;51.50;;;;;;5047048;28;20980;-72
2024/01/29 05:31:12;;;;;;;4.90;4.50;;;21.00;51.40;;;;;;5044704;28;20464;-72
2024/01/29 05:33:42;;;;;;;4.10;3.80;;;21.10;51.40;;;;;;5050338;28;20883;-72
2024/01/29 05:36:10;;;;;;;5.40;4.90;;;21.10;51.30;;;;;;5038657;28;20574;-72
2024/01/29 05:38:39;;;;;;;5.13;4.73;;;21.20;51.30;;;;;;5048658;28;20460;-72
2024/01/29 05:41:07;;;;;;;5.03;4.73;;;21.20;51.20;;;;;;5045227;28;20783;-72
2024/01/29 05:43:35;;;;;;;5.20;4.80;;;21.30;51.10;;;;;;5055043;28;20436;-72
2024/01/29 05:46:03;;;;;;;5.37;5.00;;;21.30;51.10;;;;;;5037835;28;20468;-71
2024/01/29 05:48:32;;;;;;;5.23;4.90;;;21.40;51.00;;;;;;5043795;28;20561;-71
2024/01/29 05:51:02;;;;;;;4.90;4.50;;;21.40;50.90;;;;;;5047294;28;20535;-72
2024/01/29 05:53:30;;;;;;;4.67;4.27;;;21.50;50.90;;;;;;5042853;28;20457;-72
2024/01/29 05:55:58;;;;;;;4.90;4.50;;;21.50;50.80;;;;;;5043645;28;20461;-71
2024/01/29 05:58:30;;;;;;;4.83;4.43;;;21.60;50.80;;;;;;5038281;28;20455;-74
2024/01/29 06:00:59;;;;;;;5.53;5.13;;;21.70;50.70;;;;;;5035785;28;20463;-71
2024/01/29 06:03:27;;;;;;;4.90;4.50;;;21.70;50.60;;;;;;5049050;28;20493;-71
2024/01/29 06:05:56;;;;;;;5.10;4.70;;;21.70;50.60;;;;;;5036661;28;20891;-71
2024/01/29 06:08:26;;;;;;;4.70;4.30;;;21.80;50.60;;;;;;5037642;28;20890;-70
2024/01/29 06:10:55;;;;;;;5.13;4.63;;;21.80;50.60;;;;;;5039656;28;20457;-70
2024/01/29 06:13:24;;;;;;;5.43;5.03;;;21.80;50.60;;;;;;5039146;28;20453;-70
2024/01/29 06:15:52;;;;;;;5.40;4.90;;;21.80;50.60;;;;;;5048767;28;20461;-74
2024/01/29 06:18:20;;;;;;;5.20;4.80;;;21.80;50.60;;;;;;5045583;28;20452;-72
2024/01/29 06:20:49;;;;;;;5.23;4.83;;;21.70;50.70;;;;;;5038053;28;20470;-70
2024/01/29 06:23:17;;;;;;;4.63;4.30;;;21.70;50.70;;;;;;5043417;28;21095;-70
2024/01/29 06:25:47;;;;;;;4.70;4.30;;;21.70;50.70;;;;;;5042871;28;20567;-70
2024/01/29 06:28:17;;;;;;;4.83;4.43;;;21.60;50.90;;;;;;5040535;28;20970;-70
2024/01/29 06:30:45;;;;;;;5.37;4.83;;;21.60;51.00;;;;;;5046650;28;20462;-70
2024/01/29 06:33:13;;;;;;;5.00;4.60;;;21.60;51.00;;;;;;5038653;28;20543;-70
2024/01/29 06:35:42;;;;;;;5.10;4.60;;;21.50;51.10;;;;;;5041451;28;20874;-70
2024/01/29 06:38:10;;;;;;;4.90;4.10;;;21.50;51.20;;;;;;5036930;28;20462;-71
2024/01/29 06:40:39;;;;;;;5.00;4.50;;;21.50;51.20;;;;;;5043102;28;20448;-70
2024/01/29 06:43:08;;;;;;;6.90;4.70;;;21.40;51.30;;;;;;5034383;28;20481;-70
2024/01/29 06:45:37;;;;;;;4.73;4.43;;;21.40;51.30;;;;;;5037705;28;20484;-70
2024/01/29 06:48:08;;;;;;;5.30;4.83;;;21.40;51.30;;;;;;5041952;28;20492;-71
2024/01/29 06:50:38;;;;;;;5.17;4.77;;;21.40;51.20;;;;;;5045631;28;20480;-70
2024/01/29 06:53:06;;;;;;;5.67;5.17;;;21.40;51.00;;;;;;5049248;28;20460;-70
2024/01/29 06:55:35;;;;;;;4.80;4.50;;;21.40;50.80;;;;;;5043632;28;20452;-70
2024/01/29 06:58:03;;;;;;;5.83;5.23;;;21.40;50.70;;;;;;5042220;28;20459;-70
2024/01/29 07:00:36;;;;;;;5.60;5.10;;;21.40;50.70;;;;;;5046135;28;20484;-70
2024/01/29 07:03:05;;;;;;;5.50;4.80;;;21.40;50.60;;;;;;5048306;28;20454;-72
2024/01/29 07:05:33;;;;;;;6.47;5.87;;;21.50;50.60;;;;;;5049861;28;20474;-70
2024/01/29 07:08:02;;;;;;;6.33;5.83;;;21.50;50.60;;;;;;5046491;28;20441;-70
2024/01/29 07:10:31;;;;;;;6.43;5.83;;;21.50;50.70;;;;;;5044969;28;20673;-71
2024/01/29 07:12:59;;;;;;;8.20;5.87;;;21.50;50.80;;;;;;5034138;28;20452;-71
2024/01/29 07:15:28;;;;;;;6.17;5.57;;;21.60;50.80;;;;;;5037572;28;20470;-71
2024/01/29 07:17:58;;;;;;;6.30;5.73;;;21.60;50.80;;;;;;5044558;28;20552;-74
2024/01/29 07:20:27;;;;;;;6.80;6.10;;;21.60;50.80;;;;;;5049110;28;20467;-71
2024/01/29 07:22:57;;;;;;;6.20;5.70;;;21.60;50.90;;;;;;5043923;28;20483;-71
2024/01/29 07:25:26;;;;;;;5.60;4.80;;;21.70;50.80;;;;;;5049060;28;20873;-70
2024/01/29 07:27:56;;;;;;;6.70;6.00;;;21.70;50.70;;;;;;5046574;28;21107;-71
2024/01/29 07:30:24;;;;;;;5.87;5.37;;;21.70;50.70;;;;;;5044260;28;21262;-70
2024/01/29 07:32:53;;;;;;;6.07;5.50;;;21.70;50.70;;;;;;5039614;28;20465;-70
2024/01/29 07:35:23;;;;;;;6.20;5.60;;;21.70;50.80;;;;;;5049756;28;20449;-70
2024/01/29 07:37:52;;;;;;;5.33;4.93;;;21.70;50.80;;;;;;5047290;28;20651;-70
2024/01/29 07:40:21;;;;;;;5.93;5.43;;;21.70;50.80;;;;;;5047502;28;20539;-70
2024/01/29 07:42:49;;;;;;;5.90;5.40;;;21.70;50.90;;;;;;5048617;28;20438;-70
2024/01/29 07:45:18;;;;;;;6.00;5.40;;;21.60;51.00;;;;;;5049540;28;20541;-71
2024/01/29 07:47:46;;;;;;;5.80;5.30;;;21.60;51.00;;;;;;5041963;28;20457;-71
2024/01/29 07:50:15;;;;;;;5.93;5.40;;;21.60;51.00;;;;;;5040081;28;20460;-70
2024/01/29 07:52:44;;;;;;;6.07;5.57;;;21.60;51.10;;;;;;5058217;28;20457;-72
2024/01/29 07:55:13;;;;;;;5.77;5.23;;;21.60;51.10;;;;;;5049462;28;20437;-71
2024/01/29 07:57:41;;;;;;;6.13;5.53;;;21.60;51.10;;;;;;5052634;28;20451;-70
2024/01/29 08:00:11;;;;;;;6.50;5.87;;;21.60;51.10;;;;;;5053276;28;20468;-71
2024/01/29 08:02:39;;;;;;;5.40;5.00;;;21.60;51.20;;;;;;5041943;28;20466;-69
2024/01/29 08:05:08;;;;;;;9.30;5.80;;;21.60;51.20;;;;;;5041887;28;20555;-70
2024/01/29 08:07:37;;;;;;;6.20;5.70;;;21.60;51.20;;;;;;5046012;28;20514;-70
2024/01/29 08:10:08;;;;;;;5.53;5.00;;;21.50;51.10;;;;;;5051469;28;20441;-71
2024/01/29 08:12:36;;;;;;;6.57;5.97;;;21.50;51.00;;;;;;5068860;28;20450;-71
2024/01/29 08:15:06;;;;;;;7.27;5.63;;;21.50;51.00;;;;;;5073147;28;20508;-74
2024/01/29 08:17:34;;;;;;;6.93;5.80;;;21.40;51.00;;;;;;5060339;28;20790;-71
2024/01/29 08:20:03;;;;;;;6.07;5.67;;;21.40;51.00;;;;;;5051310;28;20439;-69
2024/01/29 08:22:32;;;;;;;6.40;5.80;;;21.40;51.00;;;;;;5070072;28;20438;-69
2024/01/29 08:25:00;;;;;;;6.40;5.90;;;21.40;51.00;;;;;;5046832;28;20459;-70
2024/01/29 08:27:31;;;;;;;6.00;5.50;;;21.40;51.00;;;;;;5051810;28;20545;-71
2024/01/29 08:29:59;;;;;;;5.97;5.40;;;21.30;51.00;;;;;;5051195;28;20462;-72
2024/01/29 08:32:28;;;;;;;6.73;6.23;;;21.30;51.10;;;;;;5048828;28;20452;-70
2024/01/29 08:34:56;;;;;;;5.67;5.27;;;21.30;51.00;;;;;;5052413;28;20452;-70
2024/01/29 08:37:24;;;;;;;7.47;6.10;;;21.30;51.10;;;;;;5051844;28;21047;-71
2024/01/29 08:39:53;;;;;;;6.70;6.20;;;21.30;51.10;;;;;;5051848;28;20442;-71
2024/01/29 08:42:21;;;;;;;6.77;6.10;;;21.30;51.10;;;;;;5050669;28;20453;-70
2024/01/29 08:44:55;;;;;;;6.30;5.80;;;21.30;51.10;;;;;;5051840;28;20447;-70
2024/01/29 08:47:24;;;;;;;8.73;6.83;;;21.30;51.10;;;;;;5046701;28;20827;-70
2024/01/29 08:49:53;;;;;;;6.47;5.97;;;21.30;51.10;;;;;;5051660;28;20459;-70
2024/01/29 08:52:21;;;;;;;6.70;6.20;;;21.30;51.10;;;;;;5049141;28;20545;-70
2024/01/29 08:54:49;;;;;;;7.53;6.93;;;21.30;51.10;;;;;;5051129;28;20478;-69
2024/01/29 08:57:18;;;;;;;7.00;6.40;;;21.30;51.10;;;;;;5048575;28;20463;-72
2024/01/29 08:59:46;;;;;;;6.60;6.00;;;21.30;51.10;;;;;;5050778;28;20468;-73
2024/01/29 09:02:16;;;;;;;6.20;5.70;;;21.30;51.10;;;;;;5053122;28;20436;-71
2024/01/29 09:04:44;;;;;;;6.53;6.03;;;21.30;51.10;;;;;;5052007;28;21332;-71
2024/01/29 09:07:17;;;;;;;7.20;6.60;;;21.30;51.20;;;;;;5050758;28;20558;-71
2024/01/29 09:09:46;;;;;;;6.23;5.80;;;21.30;51.10;;;;;;5050944;28;21012;-71
2024/01/29 09:12:15;;;;;;;6.13;5.63;;;21.30;51.10;;;;;;5053597;28;20461;-74
2024/01/29 09:14:43;;;;;;;6.87;6.37;;;21.40;51.10;;;;;;5048588;28;20469;-69
2024/01/29 09:17:11;;;;;;;6.80;6.30;;;21.30;51.10;;;;;;5046949;28;20891;-73
2024/01/29 09:19:41;;;;;;;6.50;6.00;;;21.30;51.10;;;;;;5056466;28;20553;-70
2024/01/29 09:22:09;;;;;;;6.63;6.10;;;21.40;51.10;;;;;;5048296;28;20929;-71
2024/01/29 09:24:37;;;;;;;7.03;6.43;;;21.40;51.10;;;;;;5044753;28;20484;-70
2024/01/29 09:27:06;;;;;;;7.30;6.60;;;21.40;51.10;;;;;;5047510;28;20468;-70
2024/01/29 09:29:34;;;;;;;6.50;5.90;;;21.40;51.10;;;;;;5051428;28;20467;-70
2024/01/29 09:32:02;;;;;;;7.20;6.50;;;21.40;51.10;;;;;;5045597;28;20823;-70
2024/01/29 09:34:31;;;;;;;6.13;5.63;;;21.40;51.10;;;;;;5045195;28;20459;-74
2024/01/29 09:37:00;;;;;;;6.83;6.33;;;21.40;51.00;;;;;;5045475;28;20964;-74
2024/01/29 09:39:29;;;;;;;6.40;5.90;;;21.50;51.00;;;;;;5032200;28;20447;-70
2024/01/29 09:42:02;;;;;;;6.90;6.30;;;21.50;51.00;;;;;;5053168;28;20441;-74
2024/01/29 09:44:37;;;;;;;6.57;5.97;;;21.50;51.00;;;;;;5071617;28;20444;-70
2024/01/29 09:47:06;;;;;;;6.27;5.87;;;21.50;50.90;;;;;;5067242;28;20477;-70
2024/01/29 09:49:35;;;;;;;7.10;6.50;;;21.50;50.90;;;;;;5047739;28;20464;-73
2024/01/29 09:52:10;;;;;;;6.10;5.50;;;21.50;50.90;;;;;;5050852;28;20467;-70
2024/01/29 09:54:40;;;;;;;6.10;5.60;;;21.50;50.90;;;;;;5053877;28;20437;-70
2024/01/29 09:57:10;;;;;;;7.20;6.60;;;21.50;50.90;;;;;;5040736;28;20456;-70
2024/01/29 09:59:38;;;;;;;5.90;5.40;;;21.50;50.90;;;;;;5031541;28;20422;-70
2024/01/29 10:02:09;;;;;;;6.23;5.67;;;21.50;50.90;;;;;;5044923;28;20463;-70
2024/01/29 10:04:38;;;;;;;6.23;5.73;;;21.50;50.90;;;;;;5051502;28;20513;-70
2024/01/29 10:07:10;;;;;;;6.13;5.67;;;21.50;50.90;;;;;;5040271;28;20473;-71
2024/01/29 10:09:39;;;;;;;6.90;6.40;;;21.50;50.90;;;;;;5049332;28;20445;-70
2024/01/29 10:12:08;;;;;;;6.80;6.20;;;21.50;50.90;;;;;;5062358;28;20448;-71
2024/01/29 10:14:37;;;;;;;6.23;5.83;;;21.50;50.90;;;;;;5066033;28;20447;-72
2024/01/29 10:17:05;;;;;;;6.73;6.23;;;21.50;50.90;;;;;;5048392;28;20433;-70
2024/01/29 10:19:38;;;;;;;6.33;5.73;;;21.50;50.90;;;;;;5046261;28;20548;-70
2024/01/29 10:22:13;;;;;;;6.17;5.67;;;21.50;50.90;;;;;;5062581;28;20527;-70
2024/01/29 10:24:42;;;;;;;6.40;6.00;;;21.50;50.90;;;;;;5045214;28;20912;-70
2024/01/29 10:27:10;;;;;;;5.90;5.50;;;21.60;50.90;;;;;;5032464;28;21083;-70
2024/01/29 10:29:48;;;;;;;6.10;5.70;;;21.60;50.90;;;;;;5030500;28;20433;-72
2024/01/29 10:32:16;;;;;;;6.27;5.87;;;21.60;50.80;;;;;;5044920;28;20451;-71
2024/01/29 10:34:45;;;;;;;6.77;6.23;;;21.70;50.60;;;;;;5030782;28;20501;-71
2024/01/29 10:37:17;;;;;;;6.33;5.90;;;21.80;50.50;;;;;;5030613;28;20570;-70
2024/01/29 10:39:46;;;;;;;5.87;5.37;;;21.80;50.40;;;;;;5031148;28;21014;-70
2024/01/29 10:42:29;;;;;;;6.47;5.87;;;21.90;50.30;;;;;;5056858;28;20467;-70
2024/01/29 10:45:02;;;;;;;5.77;5.30;;;22.00;50.10;;;;;;5070363;28;20445;-71
2024/01/29 10:47:33;;;;;;;6.07;5.60;;;22.10;49.80;;;;;;5059305;28;20573;-71
2024/01/29 10:50:03;;;;;;;6.10;5.70;;;22.20;49.80;;;;;;5042799;28;20527;-71
2024/01/29 10:52:33;;;;;;;5.13;4.83;;;22.20;49.50;;;;;;5050147;28;20995;-70
2024/01/29 10:55:02;;;;;;;5.97;5.57;;;22.40;49.40;;;;;;5048055;28;20447;-72
2024/01/29 10:57:32;;;;;;;6.07;5.67;;;22.50;49.10;;;;;;5044809;28;21113;-72
2024/01/29 11:00:01;;;;;;;5.80;5.40;;;22.60;48.90;;;;;;5046032;28;20462;-70
2024/01/29 11:02:30;;;;;;;6.07;5.57;;;22.80;48.70;;;;;;5048616;28;20486;-70
2024/01/29 11:04:59;;;;;;;6.00;5.60;;;23.00;48.40;;;;;;5032754;28;20506;-71
2024/01/29 11:07:29;;;;;;;4.80;4.50;;;23.10;48.20;;;;;;5042084;28;20474;-70
2024/01/29 11:10:06;;;;;;;4.90;4.60;;;23.30;48.10;;;;;;5035906;28;20475;-71
2024/01/29 11:12:37;;;;;;;5.60;5.10;;;23.50;47.90;;;;;;5056398;28;20926;-70
2024/01/29 11:15:07;;;;;;;5.57;5.20;;;23.60;47.70;;;;;;5050443;28;20572;-72
2024/01/29 11:17:35;;;;;;;6.10;5.70;;;23.70;47.50;;;;;;5046750;28;20499;-72
2024/01/29 11:20:05;;;;;;;5.67;5.27;;;23.80;47.40;;;;;;5049889;28;20452;-71
2024/01/29 11:22:37;;;;;;;5.33;4.93;;;23.80;47.20;;;;;;5064260;28;20442;-71
2024/01/29 11:25:14;;;;;;;5.67;5.27;;;23.90;47.20;;;;;;5070504;28;20798;-72
2024/01/29 11:27:43;;;;;;;4.80;4.50;;;23.90;47.10;;;;;;5052160;28;21018;-71
2024/01/29 11:30:18;;;;;;;5.33;5.00;;;23.90;47.10;;;;;;5039425;28;20472;-74
2024/01/29 11:32:47;;;;;;;5.83;5.43;;;23.90;47.00;;;;;;5048109;28;20458;-71
2024/01/29 11:35:20;;;;;;;5.80;5.33;;;24.00;47.00;;;;;;5035655;28;20494;-72
2024/01/29 11:38:07;;;;;;;5.47;5.17;;;23.90;47.00;;;;;;5044617;28;20494;-72
2024/01/29 11:40:40;;;;;;;6.20;5.80;;;24.00;47.00;;;;;;5051101;28;20463;-71
2024/01/29 11:43:14;;;;;;;5.10;4.70;;;24.00;47.00;;;;;;5048787;28;20497;-72
2024/01/29 11:45:44;;;;;;;5.80;5.33;;;24.00;47.10;;;;;;5053261;28;20451;-71
2024/01/29 11:48:13;;;;;;;6.03;5.63;;;24.00;47.10;;;;;;5049881;28;20466;-71
2024/01/29 11:50:44;;;;;;;4.97;4.67;;;24.00;47.20;;;;;;5043382;28;20451;-70
2024/01/29 11:53:14;;;;;;;5.80;5.40;;;24.00;47.30;;;;;;5055500;28;20459;-70
2024/01/29 11:55:46;;;;;;;5.43;5.03;;;24.00;47.20;;;;;;5047574;28;20455;-70
2024/01/29 11:58:18;;;;;;;4.93;4.60;;;24.00;47.20;;;;;;5047992;28;20447;-70
2024/01/29 12:00:49;;;;;;;5.30;4.83;;;24.00;47.20;;;;;;5046834;28;20458;-70
2024/01/29 12:03:20;;;;;;;5.30;4.90;;;24.00;47.30;;;;;;5040540;28;20462;-70
2024/01/29 12:05:49;;;;;;;5.40;5.00;;;24.00;47.40;;;;;;5044628;28;20465;-70
2024/01/29 12:08:19;;;;;;;5.00;4.70;;;24.00;47.40;;;;;;5045021;28;20502;-74
2024/01/29 12:10:49;;;;;;;6.13;5.63;;;24.00;47.50;;;;;;5037861;28;20478;-70
2024/01/29 12:13:19;;;;;;;8.97;8.27;;;24.00;47.70;;;;;;5047167;28;20862;-70
2024/01/29 12:15:52;;;;;;;9.70;8.80;;;24.00;47.90;;;;;;5052639;28;20952;-70
2024/01/29 12:18:23;;;;;;;11.00;8.30;;;24.00;48.10;;;;;;5040201;28;20460;-70
2024/01/29 12:20:51;;;;;;;10.00;9.20;;;24.10;48.10;;;;;;5044714;28;20455;-72
2024/01/29 12:23:21;;;;;;;8.00;7.40;;;24.10;48.20;;;;;;5053578;28;20587;-70
2024/01/29 12:25:54;;;;;;;9.13;8.37;;;24.10;48.30;;;;;;5045435;28;20452;-70
2024/01/29 12:28:25;;;;;;;10.20;9.20;;;24.10;48.40;;;;;;5039127;28;20553;-71
2024/01/29 12:30:55;;;;;;;8.77;8.00;;;24.20;48.30;;;;;;5042473;28;20940;-71
2024/01/29 12:33:28;;;;;;;8.13;7.43;;;24.20;48.30;;;;;;5051674;28;20986;-71
2024/01/29 12:35:58;;;;;;;7.87;7.17;;;24.20;48.30;;;;;;5041784;28;20483;-71
2024/01/29 12:38:27;;;;;;;8.37;6.40;;;24.20;48.30;;;;;;5039677;28;20460;-74
2024/01/29 12:40:57;;;;;;;8.33;7.60;;;24.20;48.40;;;;;;5040142;28;20552;-71
2024/01/29 12:43:29;;;;;;;7.30;6.70;;;24.20;48.20;;;;;;5036972;28;20460;-71
2024/01/29 12:46:05;;;;;;;9.33;6.77;;;24.30;48.20;;;;;;5040391;28;20547;-71
2024/01/29 12:48:33;;;;;;;7.30;6.70;;;24.30;48.10;;;;;;5039105;28;21250;-70
2024/01/29 12:51:02;;;;;;;6.90;6.30;;;24.30;48.20;;;;;;5041504;28;20471;-71
2024/01/29 12:53:30;;;;;;;6.87;6.27;;;24.30;48.00;;;;;;5041041;28;20464;-76
2024/01/29 12:56:00;;;;;;;7.20;6.50;;;24.30;48.00;;;;;;5049762;28;20443;-71